createdAt,value
2022-07-29T00:02:06.069Z,1.40
2022-07-29T00:04:36.329Z,1.60
2022-07-29T00:07:05.251Z,1.50
2022-07-29T00:09:33.930Z,1.60
2022-07-29T00:12:25.269Z,1.80
2022-07-29T00:14:57.935Z,1.40
2022-07-29T00:17:26.622Z,1.50
2022-07-29T00:19:54.692Z,1.80
2022-07-29T00:22:22.875Z,2.50
2022-07-29T00:24:51.346Z,1.90
2022-07-29T00:27:19.879Z,2.20
2022-07-29T00:29:47.902Z,2.20
2022-07-29T00:32:15.939Z,1.90
2022-07-29T00:35:02.345Z,1.60
2022-07-29T00:37:30.398Z,1.70
2022-07-29T00:39:58.451Z,1.70
2022-07-29T00:42:26.581Z,1.80
2022-07-29T00:44:54.665Z,2.00
2022-07-29T00:47:22.629Z,2.30
2022-07-29T00:49:50.740Z,2.60
2022-07-29T00:52:18.780Z,2.10
2022-07-29T00:54:47.004Z,2.10
2022-07-29T00:57:14.992Z,2.60
2022-07-29T00:59:43.194Z,2.70
2022-07-29T01:02:11.601Z,2.70
2022-07-29T01:04:40.407Z,2.20
2022-07-29T01:07:09.028Z,1.90
2022-07-29T01:09:46.878Z,1.80
2022-07-29T01:12:18.861Z,2.00
2022-07-29T01:14:49.004Z,1.90
2022-07-29T01:17:19.662Z,1.80
2022-07-29T01:20:05.968Z,1.80
2022-07-29T01:22:59.970Z,1.70
2022-07-29T01:25:42.897Z,1.50
2022-07-29T01:28:43.067Z,1.50
2022-07-29T01:31:25.415Z,1.10
2022-07-29T01:34:02.770Z,1.50
2022-07-29T01:36:30.922Z,1.00
2022-07-29T01:39:28.378Z,1.30
2022-07-29T01:42:07.233Z,2.10
2022-07-29T01:44:58.770Z,1.70
2022-07-29T01:47:35.704Z,1.90
2022-07-29T01:50:09.951Z,2.00
2022-07-29T01:52:45.055Z,2.00
2022-07-29T01:55:18.611Z,2.10
2022-07-29T01:57:49.074Z,2.00
2022-07-29T02:00:18.275Z,2.00
2022-07-29T02:02:48.872Z,1.70
2022-07-29T02:05:19.845Z,2.50
2022-07-29T02:07:49.452Z,3.20
2022-07-29T02:10:25.736Z,3.30
2022-07-29T02:12:56.251Z,4.10
2022-07-29T02:15:31.211Z,3.90
2022-07-29T02:18:16.985Z,3.50
2022-07-29T02:20:48.251Z,5.30
2022-07-29T02:23:22.127Z,5.00
2022-07-29T02:25:53.274Z,5.20
2022-07-29T02:28:23.984Z,5.10
2022-07-29T02:30:54.591Z,4.80
2022-07-29T02:33:24.881Z,4.70
2022-07-29T02:35:53.883Z,3.60
2022-07-29T02:38:42.377Z,3.30
2022-07-29T02:41:14.955Z,3.20
2022-07-29T02:43:46.221Z,3.30
2022-07-29T02:46:28.494Z,3.30
2022-07-29T02:49:33.232Z,3.20
2022-07-29T02:52:09.780Z,2.90
2022-07-29T02:54:58.132Z,3.10
2022-07-29T02:57:31.688Z,5.00
2022-07-29T03:00:05.332Z,4.20
2022-07-29T03:02:44.854Z,5.30
2022-07-29T03:05:18.580Z,4.60
2022-07-29T03:07:50.757Z,5.20
2022-07-29T03:10:19.862Z,3.80
2022-07-29T03:12:49.049Z,3.00
2022-07-29T03:15:17.995Z,2.90
2022-07-29T03:17:47.565Z,2.20
2022-07-29T03:20:15.877Z,2.60
2022-07-29T03:22:45.221Z,2.90
2022-07-29T03:25:14.985Z,3.00
2022-07-29T03:27:43.924Z,2.80
2022-07-29T03:30:21.746Z,3.30
2022-07-29T03:32:52.095Z,3.00
2022-07-29T03:35:21.449Z,3.00
2022-07-29T03:37:50.521Z,3.20
2022-07-29T03:40:27.243Z,2.80
2022-07-29T03:42:56.922Z,2.90
2022-07-29T03:45:26.508Z,3.90
2022-07-29T03:48:01.286Z,3.80
2022-07-29T03:50:32.127Z,3.20
2022-07-29T03:53:00.373Z,3.20
2022-07-29T03:55:30.687Z,3.30
2022-07-29T03:57:59.853Z,3.80
2022-07-29T04:00:29.767Z,4.10
2022-07-29T04:02:58.451Z,3.90
2022-07-29T04:05:26.553Z,4.00
2022-07-29T04:07:54.580Z,4.40
2022-07-29T04:10:30.308Z,4.40
2022-07-29T04:13:00.923Z,4.60
2022-07-29T04:15:30.918Z,4.80
2022-07-29T04:18:00.746Z,6.00
2022-07-29T04:20:29.223Z,5.70
2022-07-29T04:22:57.284Z,5.20
2022-07-29T04:25:25.354Z,3.90
2022-07-29T04:28:02.636Z,4.30
2022-07-29T04:30:32.237Z,3.90
2022-07-29T04:33:03.937Z,3.70
2022-07-29T04:35:38.007Z,3.70
2022-07-29T04:38:07.562Z,3.70
2022-07-29T04:40:43.884Z,3.30
2022-07-29T04:43:14.151Z,2.40
2022-07-29T04:45:42.624Z,1.90
2022-07-29T04:48:10.687Z,2.30
2022-07-29T04:50:41.920Z,1.70
2022-07-29T04:53:10.082Z,1.60
2022-07-29T04:55:39.022Z,1.50
2022-07-29T04:58:07.438Z,1.20
2022-07-29T05:00:35.933Z,1.40
2022-07-29T05:03:05.330Z,1.40
2022-07-29T05:05:33.598Z,1.50
2022-07-29T05:08:02.195Z,1.30
2022-07-29T05:10:30.250Z,1.00
2022-07-29T05:12:58.428Z,1.40
2022-07-29T05:15:27.111Z,1.40
2022-07-29T05:17:55.219Z,1.00
2022-07-29T05:20:27.756Z,0.70
2022-07-29T05:22:57.477Z,0.70
2022-07-29T05:25:44.366Z,0.80
2022-07-29T05:28:13.320Z,0.80
2022-07-29T05:30:41.579Z,0.70
2022-07-29T05:33:35.732Z,0.60
2022-07-29T05:36:00.603Z,0.70
2022-07-29T05:38:30.026Z,0.70
2022-07-29T05:40:59.805Z,0.60
2022-07-29T05:43:28.982Z,0.50
2022-07-29T05:45:58.090Z,0.60
2022-07-29T05:48:26.550Z,0.70
2022-07-29T05:50:55.637Z,0.40
2022-07-29T05:53:23.807Z,0.70
2022-07-29T05:55:51.936Z,0.40
2022-07-29T05:58:20.203Z,0.50
2022-07-29T06:00:48.442Z,0.60
2022-07-29T06:03:16.981Z,0.60
2022-07-29T06:05:45.763Z,0.50
2022-07-29T06:08:13.804Z,0.70
2022-07-29T06:10:41.910Z,0.50
2022-07-29T06:13:10.256Z,0.40
2022-07-29T06:15:38.778Z,0.70
2022-07-29T06:18:10.226Z,0.40
2022-07-29T06:20:39.339Z,0.50
2022-07-29T06:23:07.679Z,0.60
2022-07-29T06:25:37.923Z,1.10
2022-07-29T06:28:06.125Z,0.60
2022-07-29T06:30:34.305Z,0.60
2022-07-29T06:33:03.962Z,0.40
2022-07-29T06:35:38.920Z,0.50
2022-07-29T06:38:31.360Z,0.50
2022-07-29T06:41:04.056Z,0.60
2022-07-29T06:43:52.556Z,0.60
2022-07-29T06:46:24.140Z,0.50
2022-07-29T06:48:53.461Z,0.40
2022-07-29T06:51:23.944Z,0.40
2022-07-29T06:53:59.919Z,0.70
2022-07-29T06:56:40.108Z,0.50
2022-07-29T06:59:10.247Z,0.50
2022-07-29T07:01:43.919Z,0.50
2022-07-29T07:04:12.576Z,0.40
2022-07-29T07:06:41.110Z,0.50
2022-07-29T07:09:09.422Z,0.20
2022-07-29T07:11:37.447Z,0.50
2022-07-29T07:14:05.552Z,0.40
2022-07-29T07:16:33.810Z,0.50
2022-07-29T07:19:02.327Z,0.50
2022-07-29T07:21:31.179Z,0.50
2022-07-29T07:24:00.369Z,0.40
2022-07-29T07:26:29.340Z,0.30
2022-07-29T07:28:57.828Z,0.50
2022-07-29T07:31:26.038Z,0.50
2022-07-29T07:33:54.808Z,0.40
2022-07-29T07:36:23.699Z,0.30
2022-07-29T07:38:51.893Z,0.40
2022-07-29T07:41:19.960Z,0.40
2022-07-29T07:43:48.383Z,0.20
2022-07-29T07:46:17.052Z,0.30
2022-07-29T07:48:45.677Z,0.40
2022-07-29T07:51:13.990Z,0.30
2022-07-29T07:53:42.290Z,0.50
2022-07-29T07:56:12.272Z,0.60
2022-07-29T07:58:40.757Z,0.20
2022-07-29T08:01:09.790Z,0.30
2022-07-29T08:03:38.435Z,0.70
2022-07-29T08:06:06.804Z,0.50
2022-07-29T08:08:35.189Z,0.40
2022-07-29T08:11:09.171Z,0.30
2022-07-29T08:13:39.190Z,0.30
2022-07-29T08:16:16.073Z,0.20
2022-07-29T08:18:46.106Z,0.30
2022-07-29T08:21:16.247Z,0.50
2022-07-29T08:23:55.857Z,0.40
2022-07-29T08:26:26.976Z,0.50
2022-07-29T08:28:55.185Z,0.50
2022-07-29T08:31:23.333Z,0.40
2022-07-29T08:33:51.388Z,0.50
2022-07-29T08:36:22.359Z,0.40
2022-07-29T08:38:50.760Z,0.30
2022-07-29T08:41:21.279Z,0.30
2022-07-29T08:43:50.535Z,0.30
2022-07-29T08:46:19.674Z,0.50
2022-07-29T08:48:48.747Z,0.30
2022-07-29T08:51:18.823Z,0.40
2022-07-29T08:53:49.812Z,0.40
2022-07-29T08:56:20.447Z,0.90
2022-07-29T08:58:51.844Z,0.70
2022-07-29T09:01:35.546Z,0.80
2022-07-29T09:04:11.405Z,1.00
2022-07-29T09:06:44.282Z,0.80
2022-07-29T09:09:13.008Z,1.00
2022-07-29T09:11:42.286Z,0.80
2022-07-29T09:14:13.376Z,0.70
2022-07-29T09:16:53.094Z,0.60
2022-07-29T09:19:29.207Z,0.60
2022-07-29T09:21:59.658Z,0.60
2022-07-29T09:24:40.139Z,0.40
2022-07-29T09:27:12.613Z,0.50
2022-07-29T09:29:40.968Z,0.50
2022-07-29T09:32:11.816Z,0.50
2022-07-29T09:34:40.253Z,0.60
2022-07-29T09:37:08.680Z,0.40
2022-07-29T09:39:47.676Z,0.50
2022-07-29T09:42:30.367Z,0.60
2022-07-29T09:44:58.565Z,0.60
2022-07-29T09:47:42.483Z,0.40
2022-07-29T09:50:10.791Z,0.50
2022-07-29T09:52:53.371Z,0.40
2022-07-29T09:55:21.592Z,0.30
2022-07-29T09:57:50.296Z,0.30
2022-07-29T10:00:21.382Z,0.50
2022-07-29T10:02:50.379Z,0.30
2022-07-29T10:05:18.374Z,0.40
2022-07-29T10:07:57.797Z,0.30
2022-07-29T10:10:36.877Z,0.40
2022-07-29T10:13:08.930Z,0.40
2022-07-29T10:15:45.347Z,0.30
2022-07-29T10:18:18.473Z,0.50
2022-07-29T10:20:46.728Z,0.50
2022-07-29T10:23:15.379Z,0.50
2022-07-29T10:25:46.619Z,0.30
2022-07-29T10:28:16.719Z,0.40
2022-07-29T10:30:46.996Z,0.40
2022-07-29T10:33:42.519Z,0.40
2022-07-29T10:36:43.722Z,0.40
2022-07-29T10:39:22.570Z,0.40
2022-07-29T10:42:03.697Z,0.50
2022-07-29T10:44:32.368Z,0.60
2022-07-29T10:47:00.985Z,0.60
2022-07-29T10:49:31.121Z,0.50
2022-07-29T10:52:07.070Z,0.30
2022-07-29T10:54:43.880Z,0.60
2022-07-29T10:57:25.728Z,0.40
2022-07-29T11:00:16.866Z,0.40
2022-07-29T11:02:50.181Z,0.50
2022-07-29T11:05:22.427Z,0.30
2022-07-29T11:08:26.471Z,0.30
2022-07-29T11:11:29.813Z,0.30
2022-07-29T11:13:58.296Z,0.40
2022-07-29T11:16:26.795Z,0.30
2022-07-29T11:19:26.463Z,0.50
2022-07-29T11:22:00.550Z,0.40
2022-07-29T11:24:34.931Z,0.60
2022-07-29T11:27:19.635Z,0.30
2022-07-29T11:29:56.571Z,0.40
2022-07-29T11:32:38.357Z,0.70
2022-07-29T11:35:36.759Z,0.60
2022-07-29T11:38:28.823Z,0.40
2022-07-29T11:41:19.014Z,0.50
2022-07-29T11:43:52.448Z,0.40
2022-07-29T11:46:45.894Z,0.40
2022-07-29T11:49:32.244Z,0.50
2022-07-29T11:52:05.037Z,0.60
2022-07-29T11:54:52.610Z,0.40
2022-07-29T11:57:35.954Z,0.60
2022-07-29T12:00:12.620Z,0.50
2022-07-29T12:02:48.272Z,0.40
2022-07-29T12:05:36.482Z,0.40
2022-07-29T12:08:12.470Z,0.50
2022-07-29T12:10:41.686Z,0.40
2022-07-29T12:13:11.286Z,0.50
2022-07-29T12:15:47.003Z,0.50
2022-07-29T12:18:18.836Z,0.40
2022-07-29T12:20:48.889Z,0.60
2022-07-29T12:23:18.821Z,0.40
2022-07-29T12:25:49.699Z,0.40
2022-07-29T12:28:26.989Z,0.40
2022-07-29T12:30:56.026Z,0.70
2022-07-29T12:33:29.758Z,0.50
2022-07-29T12:36:12.865Z,0.60
2022-07-29T12:38:46.863Z,0.50
2022-07-29T12:41:15.245Z,0.30
2022-07-29T12:43:55.038Z,0.40
2022-07-29T12:46:23.357Z,0.40
2022-07-29T12:48:57.753Z,0.70
2022-07-29T12:51:32.543Z,0.40
2022-07-29T12:54:17.546Z,0.30
2022-07-29T12:56:46.140Z,0.70
2022-07-29T12:59:20.425Z,0.40
2022-07-29T13:01:52.134Z,0.60
2022-07-29T13:04:37.613Z,0.50
2022-07-29T13:07:10.317Z,0.50
2022-07-29T13:09:47.668Z,0.50
2022-07-29T13:12:16.375Z,0.70
2022-07-29T13:14:48.965Z,0.50
2022-07-29T13:17:18.756Z,0.50
2022-07-29T13:19:51.689Z,0.60
2022-07-29T13:22:24.530Z,0.50
2022-07-29T13:24:56.988Z,0.50
2022-07-29T13:27:30.797Z,0.60
2022-07-29T13:30:00.863Z,0.60
2022-07-29T13:32:31.036Z,0.70
2022-07-29T13:35:05.398Z,0.70
2022-07-29T13:37:35.989Z,0.70
2022-07-29T13:40:05.272Z,0.50
2022-07-29T13:42:33.794Z,0.60
2022-07-29T13:45:02.660Z,0.60
2022-07-29T13:47:32.660Z,0.50
2022-07-29T13:50:06.822Z,0.60
2022-07-29T13:52:35.776Z,0.60
2022-07-29T13:55:04.703Z,0.60
2022-07-29T13:57:33.149Z,0.50
2022-07-29T14:00:01.236Z,0.60
2022-07-29T14:02:36.520Z,0.60
2022-07-29T14:05:08.573Z,0.40
2022-07-29T14:07:39.729Z,0.50
2022-07-29T14:10:09.362Z,0.50
2022-07-29T14:12:37.641Z,0.40
2022-07-29T14:15:06.566Z,0.50
2022-07-29T14:17:35.058Z,0.50
2022-07-29T14:20:03.387Z,0.40
2022-07-29T14:22:31.663Z,0.40
2022-07-29T14:25:05.091Z,0.50
2022-07-29T14:27:44.271Z,0.50
2022-07-29T14:30:13.088Z,0.60
2022-07-29T14:32:41.201Z,0.50
2022-07-29T14:35:09.628Z,0.50
2022-07-29T14:37:40.376Z,0.60
2022-07-29T14:40:10.572Z,0.30
2022-07-29T14:42:39.604Z,0.50
2022-07-29T14:45:09.275Z,0.60
2022-07-29T14:47:39.206Z,0.50
2022-07-29T14:50:08.168Z,0.30
2022-07-29T14:52:36.592Z,0.50
2022-07-29T14:55:05.640Z,0.30
2022-07-29T14:57:44.742Z,0.50
2022-07-29T15:00:14.464Z,0.40
2022-07-29T15:03:00.922Z,0.40
2022-07-29T15:05:31.535Z,0.50
2022-07-29T15:08:01.046Z,0.40
2022-07-29T15:10:30.006Z,0.50
2022-07-29T15:12:58.371Z,0.50
2022-07-29T15:15:27.088Z,0.60
2022-07-29T15:17:55.567Z,0.40
2022-07-29T15:20:26.530Z,0.40
2022-07-29T15:22:56.608Z,0.40
2022-07-29T15:25:25.743Z,0.60
2022-07-29T15:28:01.113Z,0.60
2022-07-29T15:30:34.429Z,0.40
2022-07-29T15:33:04.581Z,0.50
2022-07-29T15:35:40.422Z,0.50
2022-07-29T15:38:09.728Z,0.60
2022-07-29T15:40:41.398Z,0.50
2022-07-29T15:43:09.506Z,0.40
2022-07-29T15:45:42.921Z,0.50
2022-07-29T15:48:14.586Z,0.30
2022-07-29T15:50:47.124Z,0.40
2022-07-29T15:53:15.661Z,0.70
2022-07-29T15:55:44.477Z,0.50
2022-07-29T15:58:13.060Z,0.60
2022-07-29T16:00:41.130Z,0.40
2022-07-29T16:03:09.381Z,0.60
2022-07-29T16:05:37.643Z,0.50
2022-07-29T16:08:06.482Z,0.70
2022-07-29T16:10:35.244Z,0.50
2022-07-29T16:13:03.469Z,0.70
2022-07-29T16:15:31.694Z,0.50
2022-07-29T16:17:59.911Z,0.60
2022-07-29T16:20:28.159Z,0.40
2022-07-29T16:22:56.671Z,0.60
2022-07-29T16:25:43.926Z,0.80
2022-07-29T16:28:13.123Z,0.60
2022-07-29T16:30:41.468Z,0.60
2022-07-29T16:33:09.671Z,0.70
2022-07-29T16:35:40.500Z,0.70
2022-07-29T16:38:08.679Z,0.60
2022-07-29T16:40:37.059Z,0.60
2022-07-29T16:43:05.059Z,0.80
2022-07-29T16:45:45.352Z,0.80
2022-07-29T16:48:15.552Z,0.90
2022-07-29T16:50:46.748Z,0.80
2022-07-29T16:53:14.849Z,0.70
2022-07-29T16:55:43.196Z,0.60
2022-07-29T16:58:11.969Z,1.30
2022-07-29T17:00:40.755Z,1.40
2022-07-29T17:03:08.989Z,1.00
2022-07-29T17:05:52.570Z,0.90
2022-07-29T17:08:23.398Z,0.90
2022-07-29T17:10:51.896Z,0.90
2022-07-29T17:13:20.341Z,1.00
2022-07-29T17:15:48.660Z,1.50
2022-07-29T17:18:17.033Z,2.20
2022-07-29T17:20:45.695Z,2.60
2022-07-29T17:23:13.888Z,2.30
2022-07-29T17:25:42.013Z,2.20
2022-07-29T17:28:10.233Z,1.70
2022-07-29T17:30:38.290Z,1.40
2022-07-29T17:33:06.297Z,1.20
2022-07-29T17:35:52.920Z,1.00
2022-07-29T17:38:20.992Z,0.90
2022-07-29T17:40:49.056Z,1.10
2022-07-29T17:43:17.135Z,1.00
2022-07-29T17:45:49.973Z,1.00
2022-07-29T17:48:19.831Z,0.70
2022-07-29T17:50:49.054Z,1.20
2022-07-29T17:53:17.533Z,1.30
2022-07-29T17:55:48.808Z,1.00
2022-07-29T17:58:17.082Z,1.40
2022-07-29T18:00:46.256Z,1.80
2022-07-29T18:03:15.333Z,1.10
2022-07-29T18:05:43.748Z,1.00
2022-07-29T18:08:12.745Z,0.80
2022-07-29T18:10:41.496Z,1.10
2022-07-29T18:13:10.218Z,0.90
2022-07-29T18:15:39.257Z,0.80
2022-07-29T18:18:08.031Z,0.80
2022-07-29T18:20:36.084Z,0.60
2022-07-29T18:23:04.374Z,1.00
2022-07-29T18:25:32.720Z,0.90
2022-07-29T18:28:01.035Z,1.20
2022-07-29T18:30:31.035Z,1.00
2022-07-29T18:33:20.329Z,1.00
2022-07-29T18:35:49.834Z,0.90
2022-07-29T18:38:18.160Z,0.90
2022-07-29T18:40:46.468Z,1.00
2022-07-29T18:43:15.321Z,0.80
2022-07-29T18:45:43.366Z,0.90
2022-07-29T18:48:13.104Z,1.00
2022-07-29T18:50:42.303Z,0.80
2022-07-29T18:53:10.471Z,1.00
2022-07-29T18:55:38.645Z,1.20
2022-07-29T18:58:06.700Z,0.80
2022-07-29T19:00:35.656Z,0.90
2022-07-29T19:03:04.007Z,0.90
2022-07-29T19:05:32.676Z,0.90
2022-07-29T19:08:00.741Z,1.00
2022-07-29T19:10:28.879Z,0.90
2022-07-29T19:12:58.313Z,0.80
2022-07-29T19:15:26.452Z,0.80
2022-07-29T19:17:59.060Z,1.10
2022-07-29T19:20:29.636Z,1.00
2022-07-29T19:22:57.869Z,1.00
2022-07-29T19:25:26.406Z,0.90
2022-07-29T19:27:54.651Z,0.90
2022-07-29T19:30:22.879Z,1.10
2022-07-29T19:32:51.085Z,0.80
2022-07-29T19:35:28.497Z,0.90
2022-07-29T19:37:59.095Z,0.80
2022-07-29T19:40:28.639Z,1.10
2022-07-29T19:42:56.898Z,0.80
2022-07-29T19:45:26.208Z,0.80
2022-07-29T19:48:00.678Z,1.20
2022-07-29T19:50:29.872Z,1.10
2022-07-29T19:52:59.396Z,1.00
2022-07-29T19:55:27.861Z,1.00
2022-07-29T19:57:56.565Z,0.90
2022-07-29T20:00:26.082Z,0.90
2022-07-29T20:02:54.197Z,1.10
2022-07-29T20:05:27.816Z,1.00
2022-07-29T20:07:57.076Z,1.10
2022-07-29T20:10:25.205Z,0.90
2022-07-29T20:12:53.735Z,1.20
2022-07-29T20:15:23.621Z,1.20
2022-07-29T20:17:56.752Z,1.90
2022-07-29T20:20:26.020Z,1.70
2022-07-29T20:22:54.672Z,1.80
2022-07-29T20:25:23.766Z,1.50
2022-07-29T20:27:55.316Z,1.50
2022-07-29T20:30:23.711Z,1.50
2022-07-29T20:32:51.767Z,1.10
2022-07-29T20:35:21.742Z,1.30
2022-07-29T20:37:55.812Z,1.10
2022-07-29T20:40:26.111Z,1.30
2022-07-29T20:42:55.082Z,1.20
2022-07-29T20:45:24.239Z,1.00
2022-07-29T20:47:53.106Z,1.00
2022-07-29T20:50:23.897Z,1.10
2022-07-29T20:52:52.878Z,0.90
2022-07-29T20:55:21.428Z,1.00
2022-07-29T20:57:49.581Z,1.10
2022-07-29T21:00:17.985Z,0.90
2022-07-29T21:02:46.238Z,1.10
2022-07-29T21:05:14.694Z,0.80
2022-07-29T21:07:42.875Z,0.90
2022-07-29T21:10:11.171Z,1.00
2022-07-29T21:12:39.334Z,1.00
2022-07-29T21:15:07.945Z,1.00
2022-07-29T21:17:36.388Z,0.80
2022-07-29T21:20:06.867Z,1.00
2022-07-29T21:22:34.929Z,1.00
2022-07-29T21:25:03.325Z,0.90
2022-07-29T21:27:50.031Z,0.90
2022-07-29T21:30:18.343Z,0.80
2022-07-29T21:32:46.589Z,0.80
2022-07-29T21:35:31.370Z,0.90
2022-07-29T21:38:02.861Z,0.90
2022-07-29T21:40:31.007Z,0.90
2022-07-29T21:42:59.024Z,1.00
2022-07-29T21:45:27.966Z,0.90
2022-07-29T21:47:56.145Z,0.90
2022-07-29T21:50:24.152Z,0.80
2022-07-29T21:52:52.281Z,0.80
2022-07-29T21:55:20.278Z,0.80
2022-07-29T21:57:50.776Z,0.60
2022-07-29T22:00:18.950Z,0.80
2022-07-29T22:02:48.595Z,0.70
2022-07-29T22:05:16.646Z,0.80
2022-07-29T22:07:54.507Z,1.00
2022-07-29T22:10:27.017Z,0.80
2022-07-29T22:12:56.913Z,0.80
2022-07-29T22:15:25.570Z,1.00
2022-07-29T22:17:53.866Z,0.60
2022-07-29T22:20:23.379Z,0.70
2022-07-29T22:22:51.550Z,1.00
2022-07-29T22:25:20.441Z,0.90
2022-07-29T22:27:48.716Z,1.20
2022-07-29T22:30:18.552Z,0.80
2022-07-29T22:32:48.060Z,0.90
2022-07-29T22:35:16.621Z,0.80
2022-07-29T22:37:44.709Z,0.70
2022-07-29T22:40:12.959Z,0.90
2022-07-29T22:42:41.123Z,0.80
2022-07-29T22:45:10.806Z,0.70
2022-07-29T22:47:46.133Z,0.90
2022-07-29T22:50:17.670Z,0.70
2022-07-29T22:52:46.419Z,0.60
2022-07-29T22:55:15.311Z,0.90
2022-07-29T22:57:43.442Z,0.70
2022-07-29T23:00:12.720Z,0.90
2022-07-29T23:02:41.781Z,0.80
2022-07-29T23:05:10.853Z,1.10
2022-07-29T23:07:39.039Z,1.30
2022-07-29T23:10:08.246Z,1.10
2022-07-29T23:12:37.646Z,0.90
2022-07-29T23:15:06.554Z,0.70
2022-07-29T23:17:36.045Z,0.60
2022-07-29T23:20:07.955Z,0.60
2022-07-29T23:22:36.648Z,0.70
2022-07-29T23:25:06.398Z,0.80
2022-07-29T23:27:34.665Z,0.60
2022-07-29T23:30:02.954Z,0.60
2022-07-29T23:32:31.119Z,0.70
2022-07-29T23:34:59.198Z,0.80
2022-07-29T23:37:27.224Z,0.50
2022-07-29T23:39:55.322Z,0.80
2022-07-29T23:42:23.394Z,0.70
2022-07-29T23:44:51.605Z,0.70
2022-07-29T23:47:19.687Z,0.80
2022-07-29T23:49:50.020Z,0.60
2022-07-29T23:52:18.239Z,0.70
2022-07-29T23:54:46.362Z,0.60
2022-07-29T23:57:14.740Z,0.70
2022-07-29T23:59:42.778Z,0.60
